createdAt,value
2022-09-22T00:01:34.034Z,99.90
2022-09-22T00:04:07.380Z,99.90
2022-09-22T00:06:38.810Z,99.90
2022-09-22T00:09:10.266Z,99.90
2022-09-22T00:11:40.871Z,99.90
2022-09-22T00:14:10.646Z,99.90
2022-09-22T00:16:40.432Z,99.90
2022-09-22T00:19:08.517Z,99.90
2022-09-22T00:21:36.721Z,99.90
2022-09-22T00:24:07.275Z,99.90
2022-09-22T00:26:38.023Z,99.90
2022-09-22T00:29:08.169Z,99.90
2022-09-22T00:31:37.423Z,99.90
2022-09-22T00:34:05.986Z,99.90
2022-09-22T00:36:33.978Z,99.90
2022-09-22T00:39:01.993Z,99.90
2022-09-22T00:41:31.493Z,99.90
2022-09-22T00:44:35.933Z,99.90
2022-09-22T00:47:13.514Z,99.90
2022-09-22T00:49:48.838Z,99.90
2022-09-22T00:52:26.631Z,99.90
2022-09-22T00:54:57.940Z,99.90
2022-09-22T00:57:31.478Z,99.90
2022-09-22T01:00:02.524Z,99.90
2022-09-22T01:02:30.455Z,99.90
2022-09-22T01:04:58.761Z,99.90
2022-09-22T01:07:31.190Z,99.90
2022-09-22T01:10:00.045Z,99.90
2022-09-22T01:12:30.666Z,99.90
2022-09-22T01:15:13.537Z,99.90
2022-09-22T01:17:51.986Z,99.90
2022-09-22T01:20:54.722Z,99.90
2022-09-22T01:24:01.224Z,99.90
2022-09-22T01:27:01.336Z,99.90
2022-09-22T01:29:57.971Z,99.90
2022-09-22T01:32:32.151Z,99.90
2022-09-22T01:35:07.686Z,99.90
2022-09-22T01:37:44.479Z,99.90
2022-09-22T01:40:18.019Z,99.90
2022-09-22T01:42:50.831Z,99.90
2022-09-22T01:45:23.695Z,99.90
2022-09-22T01:47:56.583Z,99.90
2022-09-22T01:50:28.967Z,99.90
2022-09-22T01:53:00.993Z,99.90
2022-09-22T01:55:33.098Z,99.90
2022-09-22T01:58:05.946Z,99.90
2022-09-22T02:00:34.819Z,99.90
2022-09-22T02:03:09.356Z,99.90
2022-09-22T02:05:43.899Z,99.90
2022-09-22T02:08:17.043Z,99.90
2022-09-22T02:10:48.669Z,99.90
2022-09-22T02:13:16.959Z,99.90
2022-09-22T02:16:04.070Z,99.90
2022-09-22T02:18:40.579Z,99.90
2022-09-22T02:21:08.592Z,99.90
2022-09-22T02:23:36.567Z,99.90
2022-09-22T02:26:06.789Z,99.90
2022-09-22T02:28:37.805Z,99.90
2022-09-22T02:31:20.155Z,99.90
2022-09-22T02:33:50.866Z,99.90
2022-09-22T02:36:36.507Z,99.90
2022-09-22T02:39:09.970Z,99.90
2022-09-22T02:41:47.157Z,99.90
2022-09-22T02:44:19.913Z,99.90
2022-09-22T02:46:54.531Z,99.90
2022-09-22T02:49:25.930Z,99.90
2022-09-22T02:51:54.856Z,99.90
2022-09-22T02:54:23.226Z,99.90
2022-09-22T02:56:51.424Z,99.90
2022-09-22T02:59:19.711Z,99.90
2022-09-22T03:01:48.750Z,99.90
2022-09-22T03:04:16.837Z,99.90
2022-09-22T03:06:46.111Z,99.90
2022-09-22T03:09:16.588Z,99.90
2022-09-22T03:11:45.229Z,99.90
2022-09-22T03:14:13.193Z,99.90
2022-09-22T03:16:41.014Z,99.90
2022-09-22T03:19:08.986Z,99.90
2022-09-22T03:21:36.989Z,99.90
2022-09-22T03:24:06.981Z,99.90
2022-09-22T03:26:35.661Z,99.90
2022-09-22T03:29:03.597Z,99.90
2022-09-22T03:31:31.421Z,99.90
2022-09-22T03:33:59.461Z,99.90
2022-09-22T03:36:27.504Z,99.90
2022-09-22T03:38:55.471Z,99.90
2022-09-22T03:41:24.823Z,99.90
2022-09-22T03:43:52.928Z,99.90
2022-09-22T03:46:21.078Z,99.90
2022-09-22T03:48:49.081Z,99.90
2022-09-22T03:51:17.046Z,99.90
2022-09-22T03:53:45.561Z,99.90
2022-09-22T03:56:15.385Z,99.90
2022-09-22T03:58:45.133Z,99.90
2022-09-22T04:01:13.438Z,99.90
2022-09-22T04:03:41.599Z,99.90
2022-09-22T04:06:09.721Z,99.90
2022-09-22T04:08:37.680Z,99.90
2022-09-22T04:11:06.796Z,99.90
2022-09-22T04:13:35.508Z,99.90
2022-09-22T04:16:06.190Z,99.90
2022-09-22T04:18:34.365Z,99.90
2022-09-22T04:21:02.448Z,99.90
2022-09-22T04:23:30.303Z,99.90
2022-09-22T04:25:58.118Z,99.90
2022-09-22T04:28:26.122Z,99.90
2022-09-22T04:30:53.971Z,99.90
2022-09-22T04:33:23.579Z,99.90
2022-09-22T04:35:52.695Z,99.90
2022-09-22T04:38:21.056Z,99.90
2022-09-22T04:40:49.812Z,99.90
2022-09-22T04:43:17.803Z,99.90
2022-09-22T04:45:47.165Z,99.90
2022-09-22T04:48:15.249Z,99.90
2022-09-22T04:50:48.130Z,99.90
2022-09-22T04:53:16.411Z,99.90
2022-09-22T04:55:44.225Z,99.90
2022-09-22T04:58:12.104Z,99.90
2022-09-22T05:00:39.928Z,99.90
2022-09-22T05:03:09.666Z,99.90
2022-09-22T05:05:38.214Z,99.90
2022-09-22T05:08:07.762Z,99.90
2022-09-22T05:10:36.766Z,99.90
2022-09-22T05:13:05.789Z,99.90
2022-09-22T05:15:34.677Z,99.90
2022-09-22T05:18:02.859Z,99.90
2022-09-22T05:20:30.678Z,99.90
2022-09-22T05:22:58.664Z,99.90
2022-09-22T05:25:28.303Z,99.90
2022-09-22T05:27:56.830Z,99.90
2022-09-22T05:30:26.765Z,99.90
2022-09-22T05:32:55.051Z,99.90
2022-09-22T05:35:25.419Z,99.90
2022-09-22T05:37:54.280Z,99.90
2022-09-22T05:40:24.109Z,99.90
2022-09-22T05:42:54.638Z,99.90
2022-09-22T05:45:22.691Z,99.90
2022-09-22T05:47:50.971Z,99.90
2022-09-22T05:50:20.854Z,99.90
2022-09-22T05:52:48.875Z,99.90
2022-09-22T05:55:17.131Z,99.90
2022-09-22T05:57:44.949Z,99.90
2022-09-22T06:00:15.084Z,99.90
2022-09-22T06:02:44.722Z,99.90
2022-09-22T06:05:15.139Z,99.90
2022-09-22T06:07:44.666Z,99.90
2022-09-22T06:10:12.775Z,99.90
2022-09-22T06:12:41.000Z,99.90
2022-09-22T06:15:09.806Z,99.90
2022-09-22T06:17:39.039Z,99.90
2022-09-22T06:20:08.574Z,99.90
2022-09-22T06:22:37.210Z,99.90
2022-09-22T06:25:09.034Z,99.90
2022-09-22T06:27:37.016Z,99.90
2022-09-22T06:30:06.165Z,99.90
2022-09-22T06:32:34.261Z,99.90
2022-09-22T06:35:03.790Z,99.90
2022-09-22T06:37:32.499Z,99.90
2022-09-22T06:40:00.444Z,99.90
2022-09-22T06:42:28.411Z,99.90
2022-09-22T06:44:56.509Z,99.90
2022-09-22T06:47:24.383Z,99.90
2022-09-22T06:49:52.272Z,99.90
2022-09-22T06:52:21.490Z,99.90
2022-09-22T06:54:52.046Z,99.90
2022-09-22T06:57:23.394Z,99.90
2022-09-22T06:59:51.380Z,99.90
2022-09-22T07:02:20.151Z,99.90
2022-09-22T07:04:48.471Z,99.90
2022-09-22T07:07:16.512Z,99.90
2022-09-22T07:09:46.217Z,99.90
2022-09-22T07:12:14.422Z,99.90
2022-09-22T07:14:42.696Z,99.90
2022-09-22T07:17:10.551Z,99.90
2022-09-22T07:19:38.426Z,99.90
2022-09-22T07:22:06.844Z,99.90
2022-09-22T07:24:35.086Z,99.90
2022-09-22T07:27:07.182Z,99.90
2022-09-22T07:29:34.980Z,99.90
2022-09-22T07:32:03.908Z,99.90
2022-09-22T07:34:31.967Z,99.90
2022-09-22T07:37:00.522Z,99.90
2022-09-22T07:39:28.347Z,99.90
2022-09-22T07:41:56.257Z,99.90
2022-09-22T07:44:44.661Z,99.90
2022-09-22T07:47:13.760Z,99.90
2022-09-22T07:49:42.985Z,99.90
2022-09-22T07:52:10.843Z,99.90
2022-09-22T07:54:39.790Z,99.90
2022-09-22T07:57:09.487Z,99.90
2022-09-22T07:59:39.677Z,99.90
2022-09-22T08:02:08.125Z,99.90
2022-09-22T08:04:35.979Z,99.90
2022-09-22T08:07:03.997Z,99.90
2022-09-22T08:09:33.596Z,99.90
2022-09-22T08:12:02.234Z,99.90
2022-09-22T08:14:30.359Z,99.90
2022-09-22T08:16:59.810Z,99.90
2022-09-22T08:19:27.762Z,99.90
2022-09-22T08:21:55.573Z,99.90
2022-09-22T08:24:24.284Z,99.90
2022-09-22T08:26:54.773Z,99.90
2022-09-22T08:29:24.345Z,99.90
2022-09-22T08:31:52.350Z,99.90
2022-09-22T08:34:22.345Z,99.90
2022-09-22T08:36:50.186Z,99.90
2022-09-22T08:39:19.553Z,99.90
2022-09-22T08:41:59.873Z,99.90
2022-09-22T08:44:32.777Z,99.90
2022-09-22T08:47:02.873Z,99.90
2022-09-22T08:49:54.964Z,99.90
2022-09-22T08:52:29.096Z,99.90
2022-09-22T08:54:59.596Z,99.90
2022-09-22T08:57:41.702Z,99.90
2022-09-22T09:00:15.049Z,99.90
2022-09-22T09:02:46.628Z,99.90
2022-09-22T09:05:40.394Z,99.90
2022-09-22T09:08:21.757Z,99.90
2022-09-22T09:10:55.719Z,99.90
2022-09-22T09:13:41.043Z,99.90
2022-09-22T09:16:26.903Z,99.90
2022-09-22T09:19:01.622Z,99.90
2022-09-22T09:21:34.080Z,99.90
2022-09-22T09:26:56.955Z,99.90
2022-09-22T09:29:28.112Z,99.90
2022-09-22T09:31:58.053Z,99.90
2022-09-22T09:34:30.020Z,99.90
2022-09-22T09:37:08.497Z,99.90
2022-09-22T09:39:39.111Z,99.90
2022-09-22T09:42:18.012Z,99.90
2022-09-22T09:44:46.713Z,99.90
2022-09-22T09:47:23.912Z,99.90
2022-09-22T09:49:53.144Z,99.90
2022-09-22T09:52:26.254Z,99.90
2022-09-22T09:54:55.473Z,99.90
2022-09-22T09:57:27.889Z,99.90
2022-09-22T10:00:32.325Z,99.90
2022-09-22T10:03:14.775Z,99.90
2022-09-22T10:05:43.713Z,99.90
2022-09-22T10:08:23.494Z,99.90
2022-09-22T10:10:58.197Z,99.90
2022-09-22T10:13:38.134Z,99.90
2022-09-22T10:16:22.754Z,99.90
2022-09-22T10:18:52.329Z,99.90
2022-09-22T10:21:21.866Z,99.90
2022-09-22T10:23:53.019Z,99.90
2022-09-22T10:26:26.324Z,99.90
2022-09-22T10:29:21.045Z,99.90
2022-09-22T10:32:12.937Z,99.90
2022-09-22T10:34:42.288Z,99.90
2022-09-22T10:37:12.732Z,99.90
2022-09-22T10:39:46.363Z,99.90
2022-09-22T10:42:34.426Z,99.90
2022-09-22T10:45:05.678Z,99.90
2022-09-22T10:47:55.390Z,99.90
2022-09-22T10:50:38.080Z,99.90
2022-09-22T10:53:25.562Z,99.90
2022-09-22T10:56:01.495Z,99.90
2022-09-22T10:58:46.842Z,99.90
2022-09-22T11:01:32.119Z,99.90
2022-09-22T11:04:29.830Z,99.90
2022-09-22T11:07:34.093Z,99.90
2022-09-22T11:10:34.964Z,99.90
2022-09-22T11:13:14.638Z,99.90
2022-09-22T11:16:03.034Z,99.90
2022-09-22T11:18:46.643Z,99.90
2022-09-22T11:21:26.897Z,99.90
2022-09-22T11:24:10.054Z,99.90
2022-09-22T11:26:48.028Z,99.90
2022-09-22T11:29:52.477Z,99.90
2022-09-22T11:32:34.187Z,99.90
2022-09-22T11:35:21.205Z,99.90
2022-09-22T11:38:03.999Z,99.90
2022-09-22T11:40:50.230Z,99.90
2022-09-22T11:43:34.454Z,99.90
2022-09-22T11:46:11.864Z,99.90
2022-09-22T11:48:56.309Z,99.90
2022-09-22T11:51:38.634Z,99.90
2022-09-22T11:54:25.474Z,99.90
2022-09-22T11:56:57.868Z,99.90
2022-09-22T11:59:36.547Z,99.90
2022-09-22T12:02:17.411Z,99.90
2022-09-22T12:04:52.099Z,99.90
2022-09-22T12:07:28.027Z,99.90
2022-09-22T12:09:59.199Z,99.90
2022-09-22T12:12:32.671Z,99.90
2022-09-22T12:15:06.863Z,99.90
2022-09-22T12:17:42.110Z,99.90
2022-09-22T12:20:38.740Z,99.90
2022-09-22T12:23:28.811Z,99.90
2022-09-22T12:26:05.720Z,99.90
2022-09-22T12:28:40.147Z,99.90
2022-09-22T12:31:12.671Z,99.90
2022-09-22T12:33:48.587Z,99.90
2022-09-22T12:36:18.160Z,99.90
2022-09-22T12:38:46.633Z,99.90
2022-09-22T12:41:19.832Z,99.90
2022-09-22T12:43:48.763Z,99.90
2022-09-22T12:46:24.429Z,99.90
2022-09-22T12:48:53.940Z,99.90
2022-09-22T12:51:39.596Z,99.90
2022-09-22T12:54:38.695Z,99.90
2022-09-22T12:57:26.230Z,99.90
2022-09-22T13:00:06.721Z,99.90
2022-09-22T13:02:42.916Z,99.90
2022-09-22T13:05:45.544Z,99.90
2022-09-22T13:08:25.875Z,99.90
2022-09-22T13:11:01.475Z,99.90
2022-09-22T13:13:41.240Z,99.90
2022-09-22T13:16:37.403Z,99.90
2022-09-22T13:19:10.974Z,99.90
2022-09-22T13:21:41.723Z,99.90
2022-09-22T13:24:19.988Z,99.90
2022-09-22T13:26:47.936Z,99.90
2022-09-22T13:29:18.475Z,99.90
2022-09-22T13:31:48.520Z,99.90
2022-09-22T13:34:30.130Z,99.90
2022-09-22T13:37:02.002Z,99.90
2022-09-22T13:39:32.750Z,99.90
2022-09-22T13:42:06.654Z,99.90
2022-09-22T13:44:39.464Z,99.90
2022-09-22T13:47:13.574Z,99.90
2022-09-22T13:49:43.923Z,99.90
2022-09-22T13:52:17.927Z,99.90
2022-09-22T13:54:50.951Z,99.90
2022-09-22T13:57:23.964Z,99.90
2022-09-22T13:59:52.766Z,99.90
2022-09-22T14:02:28.136Z,99.90
2022-09-22T14:05:02.517Z,99.90
2022-09-22T14:07:44.991Z,99.90
2022-09-22T14:10:23.108Z,99.90
2022-09-22T14:12:51.591Z,99.90
2022-09-22T14:15:39.116Z,99.90
2022-09-22T14:18:12.343Z,99.90
2022-09-22T14:20:40.823Z,99.90
2022-09-22T14:23:21.134Z,99.90
2022-09-22T14:25:49.554Z,99.90
2022-09-22T14:28:22.022Z,99.90
2022-09-22T14:30:51.044Z,99.90
2022-09-22T14:33:22.462Z,99.90
2022-09-22T14:35:52.869Z,99.90
2022-09-22T14:38:24.041Z,99.90
2022-09-22T14:40:54.045Z,99.90
2022-09-22T14:43:24.967Z,99.90
2022-09-22T14:46:00.592Z,99.90
2022-09-22T14:48:31.199Z,98.80
2022-09-22T14:51:03.610Z,99.10
2022-09-22T14:53:36.193Z,99.60
2022-09-22T14:56:08.052Z,99.70
2022-09-22T14:58:40.481Z,99.60
2022-09-22T15:01:42.001Z,99.90
2022-09-22T15:04:18.288Z,98.10
2022-09-22T15:06:48.345Z,98.80
2022-09-22T15:09:27.444Z,99.00
2022-09-22T15:11:57.433Z,98.30
2022-09-22T15:14:43.040Z,99.40
2022-09-22T15:17:54.687Z,99.70
2022-09-22T15:20:24.760Z,98.50
2022-09-22T15:22:54.072Z,99.70
2022-09-22T15:25:24.127Z,98.70
2022-09-22T15:27:53.546Z,98.70
2022-09-22T15:30:22.652Z,99.00
2022-09-22T15:32:51.143Z,99.00
2022-09-22T15:35:20.352Z,99.60
2022-09-22T15:37:50.622Z,99.60
2022-09-22T15:40:21.209Z,99.50
2022-09-22T15:43:11.736Z,99.10
2022-09-22T15:45:46.521Z,99.40
2022-09-22T15:48:22.870Z,99.50
2022-09-22T15:50:51.345Z,99.70
2022-09-22T15:53:19.579Z,99.90
2022-09-22T15:55:48.489Z,99.90
2022-09-22T15:58:21.739Z,99.90
2022-09-22T16:00:58.509Z,99.90
2022-09-22T16:03:26.872Z,99.90
2022-09-22T16:06:00.865Z,99.80
2022-09-22T16:08:35.658Z,99.90
2022-09-22T16:11:07.500Z,99.90
2022-09-22T16:13:40.354Z,99.90
2022-09-22T16:16:10.346Z,99.90
2022-09-22T16:18:42.233Z,99.90
2022-09-22T16:21:19.882Z,99.90
2022-09-22T16:23:47.826Z,99.90
2022-09-22T16:26:16.302Z,99.90
2022-09-22T16:28:45.475Z,99.90
2022-09-22T16:31:14.494Z,99.90
2022-09-22T16:33:43.843Z,99.90
2022-09-22T16:36:12.016Z,99.90
2022-09-22T16:38:39.866Z,99.90
2022-09-22T16:41:18.147Z,99.90
2022-09-22T16:43:47.555Z,99.90
2022-09-22T16:46:28.250Z,99.90
2022-09-22T16:48:58.661Z,99.90
2022-09-22T16:51:27.206Z,99.90
2022-09-22T16:53:55.262Z,99.90
2022-09-22T16:56:24.544Z,99.90
2022-09-22T16:58:56.103Z,99.90
2022-09-22T17:01:24.763Z,99.90
2022-09-22T17:03:53.784Z,99.90
2022-09-22T17:06:24.428Z,99.90
2022-09-22T17:08:52.942Z,99.90
2022-09-22T17:11:23.435Z,99.90
2022-09-22T17:13:51.328Z,99.90
2022-09-22T17:16:24.654Z,99.90
2022-09-22T17:18:54.664Z,99.90
2022-09-22T17:21:23.627Z,99.90
2022-09-22T17:24:00.349Z,99.90
2022-09-22T17:26:29.897Z,99.90
2022-09-22T17:28:59.587Z,99.90
2022-09-22T17:31:31.350Z,99.90
2022-09-22T17:33:59.971Z,99.90
2022-09-22T17:36:29.327Z,99.90
2022-09-22T17:38:59.247Z,99.90
2022-09-22T17:41:29.555Z,99.90
2022-09-22T17:44:01.090Z,99.90
2022-09-22T17:46:32.651Z,99.90
2022-09-22T17:49:18.674Z,99.90
2022-09-22T17:52:05.986Z,99.90
2022-09-22T17:54:52.914Z,99.90
2022-09-22T17:57:22.947Z,99.90
2022-09-22T17:59:51.242Z,99.90
2022-09-22T18:02:21.737Z,99.90
2022-09-22T18:04:50.225Z,99.90
2022-09-22T18:07:20.644Z,99.90
2022-09-22T18:09:51.479Z,99.90
2022-09-22T18:12:23.066Z,99.90
2022-09-22T18:14:53.208Z,99.90
2022-09-22T18:17:24.851Z,99.90
2022-09-22T18:19:55.009Z,99.90
2022-09-22T18:22:24.907Z,99.90
2022-09-22T18:24:55.691Z,99.90
2022-09-22T18:27:26.879Z,99.90
2022-09-22T18:29:58.799Z,99.90
2022-09-22T18:32:29.147Z,99.90
2022-09-22T18:34:57.151Z,99.90
2022-09-22T18:37:26.877Z,99.90
2022-09-22T18:39:55.185Z,99.90
2022-09-22T18:42:25.156Z,99.90
2022-09-22T18:44:53.586Z,99.90
2022-09-22T18:47:23.202Z,99.90
2022-09-22T18:49:52.658Z,99.90
2022-09-22T18:52:24.795Z,99.90
2022-09-22T18:54:54.747Z,99.90
2022-09-22T18:57:24.567Z,99.90
2022-09-22T18:59:52.485Z,99.90
2022-09-22T19:02:22.372Z,99.90
2022-09-22T19:04:52.507Z,99.90
2022-09-22T19:07:42.524Z,99.90
2022-09-22T19:10:12.391Z,99.90
2022-09-22T19:12:40.531Z,99.90
2022-09-22T19:15:13.614Z,99.90
2022-09-22T19:17:44.145Z,99.90
2022-09-22T19:20:14.982Z,99.90
2022-09-22T19:22:43.367Z,99.90
2022-09-22T19:25:11.811Z,99.90
2022-09-22T19:27:39.767Z,99.90
2022-09-22T19:30:08.801Z,99.90
2022-09-22T19:32:37.162Z,99.90
2022-09-22T19:35:06.240Z,99.90
2022-09-22T19:37:35.793Z,99.90
2022-09-22T19:40:04.006Z,99.90
2022-09-22T19:42:32.040Z,99.90
2022-09-22T19:45:00.116Z,99.90
2022-09-22T19:47:28.031Z,99.90
2022-09-22T19:49:56.365Z,99.90
2022-09-22T19:52:24.358Z,99.90
2022-09-22T19:54:53.658Z,99.90
2022-09-22T19:57:21.588Z,99.90
2022-09-22T19:59:50.759Z,99.90
2022-09-22T20:02:20.504Z,99.90
2022-09-22T20:04:48.918Z,99.90
2022-09-22T20:07:16.826Z,99.90
2022-09-22T20:09:44.887Z,99.90
2022-09-22T20:12:16.048Z,99.90
2022-09-22T20:14:42.931Z,99.90
2022-09-22T20:17:10.898Z,99.90
2022-09-22T20:19:42.071Z,99.90
2022-09-22T20:22:25.400Z,99.90
2022-09-22T20:24:55.611Z,99.90
2022-09-22T20:27:29.382Z,99.90
2022-09-22T20:29:57.801Z,99.90
2022-09-22T20:32:26.322Z,99.90
2022-09-22T20:34:55.424Z,99.90
2022-09-22T20:37:24.400Z,99.90
2022-09-22T20:39:52.672Z,99.90
2022-09-22T20:42:20.941Z,99.90
2022-09-22T20:44:50.658Z,99.90
2022-09-22T20:47:21.979Z,99.90
2022-09-22T20:49:51.969Z,99.90
2022-09-22T20:52:21.708Z,99.90
2022-09-22T20:54:50.006Z,99.90
2022-09-22T20:57:18.485Z,99.90
2022-09-22T20:59:47.663Z,99.90
2022-09-22T21:02:17.423Z,99.90
2022-09-22T21:04:45.416Z,99.90
2022-09-22T21:07:13.638Z,99.90
2022-09-22T21:10:01.978Z,99.90
2022-09-22T21:12:31.728Z,99.90
2022-09-22T21:15:00.441Z,99.90
2022-09-22T21:17:32.891Z,99.90
2022-09-22T21:20:01.016Z,99.90
2022-09-22T21:22:29.295Z,99.90
2022-09-22T21:24:57.514Z,99.90
2022-09-22T21:27:25.690Z,99.90
2022-09-22T21:29:54.161Z,99.90
2022-09-22T21:32:22.199Z,99.90
2022-09-22T21:34:51.649Z,99.90
2022-09-22T21:37:19.683Z,99.90
2022-09-22T21:39:47.732Z,99.90
2022-09-22T21:42:15.715Z,99.90
2022-09-22T21:44:43.996Z,99.90
2022-09-22T21:47:11.956Z,99.90
2022-09-22T21:49:39.881Z,99.90
2022-09-22T21:52:09.099Z,99.90
2022-09-22T21:54:37.257Z,99.90
2022-09-22T21:57:05.290Z,99.90
2022-09-22T21:59:33.187Z,99.90
2022-09-22T22:02:01.176Z,99.90
2022-09-22T22:04:29.192Z,99.90
2022-09-22T22:06:57.074Z,99.90
2022-09-22T22:09:26.547Z,99.90
2022-09-22T22:11:56.839Z,99.90
2022-09-22T22:14:26.791Z,99.90
2022-09-22T22:16:56.131Z,99.90
2022-09-22T22:19:26.926Z,99.90
2022-09-22T22:21:55.985Z,99.90
2022-09-22T22:24:34.947Z,99.90
2022-09-22T22:27:05.984Z,99.90
2022-09-22T22:29:36.455Z,99.90
2022-09-22T22:32:06.167Z,99.90
2022-09-22T22:34:34.197Z,99.90
2022-09-22T22:37:03.961Z,99.90
2022-09-22T22:39:33.404Z,99.90
2022-09-22T22:42:02.187Z,99.90
2022-09-22T22:44:30.233Z,99.90
2022-09-22T22:46:58.503Z,99.90
2022-09-22T22:49:28.167Z,99.90
2022-09-22T22:51:56.291Z,99.90
2022-09-22T22:54:24.088Z,99.90
2022-09-22T22:56:53.383Z,99.90
2022-09-22T22:59:21.440Z,99.90
2022-09-22T23:01:49.679Z,99.90
2022-09-22T23:04:17.630Z,99.90
2022-09-22T23:06:47.320Z,99.90
2022-09-22T23:09:17.136Z,99.90
2022-09-22T23:11:46.411Z,99.90
2022-09-22T23:14:17.206Z,99.90
2022-09-22T23:16:47.088Z,99.90
2022-09-22T23:19:17.931Z,99.90
2022-09-22T23:21:46.906Z,99.90
2022-09-22T23:24:16.222Z,99.90
2022-09-22T23:26:44.439Z,99.90
2022-09-22T23:29:12.389Z,99.90
2022-09-22T23:31:42.217Z,99.90
2022-09-22T23:34:10.142Z,99.90
2022-09-22T23:36:39.703Z,99.90
2022-09-22T23:39:07.933Z,99.90
2022-09-22T23:41:37.577Z,99.90
2022-09-22T23:44:07.093Z,99.90
2022-09-22T23:46:35.271Z,99.90
2022-09-22T23:49:05.529Z,99.90
2022-09-22T23:51:33.621Z,99.90
2022-09-22T23:54:05.807Z,99.90
2022-09-22T23:56:33.757Z,99.90
2022-09-22T23:59:01.782Z,99.90
